Main page
METAR-TAF:

METAR-TAF

Airports :

Hévíz–Balaton Airport

Hévíz, Hungary

latitude: 46-41-11N, longitude: 017-09-33E, elevation: 124 m

Current weather observation

The report was made 48 minutes ago, at 06:15 UTC
Wind 6 kt from the South
Temperature 8°C
Humidity 100%
Pressure 1012 hPa
Visibility: 6000 m
Broken clouds at a height of 800 ft

METAR: LHSM 210615Z AUTO 17006KT 6000 BKN008 08/08 Q1012

Time: 08:03 (07:03 UTC)

Forecast

The report was made 1 hour and 3 minutes ago, at 06:00 UTC
Forecast valid from 21 at 06 UTC to 21 at 15 UTC
Wind 8 kt from the South
Visibility: 6000 m
Scattered clouds at a height of 1000 ft
Broken clouds at a height of 7000 ft
Temporary
from 21 at 06 UTC to 21 at 09 UTC
Visibility: 4000 m
Broken clouds at a height of 600 ft
mist
Temporary
from 21 at 10 UTC to 21 at 15 UTC
Visibility 10 km or more
no clouds below 1500 m and no cumulonimbus

TAF: LHSM 210600Z 2106/2115 18008KT 6000 SCT010 BKN070 TEMPO 2106/2109 4000 BR BKN006 TEMPO 2110/2115 CAVOK

Weather observations and forecasts of more than 4000 airports (METAR and TAF reports).

The available stations are represented by yellow and red dots on the map.

Hover mouse over dot to see the name of the station.

Then click to see weather observations and forecasts.

To change the map : click on the green buttons with a black cross to zoom in, on the green button with a dash to zoom out, or on the green arrows for adjacent maps.


METAR-TAF: